sensor_id;sensor_type;location;lat;lon;timestamp;temperature;humidity
67598;DHT22;62026;39.230;9.122;2023-08-30T00:00:47;23.90;50.90
67598;DHT22;62026;39.230;9.122;2023-08-30T00:03:13;23.90;50.90
67598;DHT22;62026;39.230;9.122;2023-08-30T00:05:40;23.80;51.20
67598;DHT22;62026;39.230;9.122;2023-08-30T00:08:07;23.80;51.30
67598;DHT22;62026;39.230;9.122;2023-08-30T00:10:33;23.80;51.30
67598;DHT22;62026;39.230;9.122;2023-08-30T00:12:59;23.70;51.50
67598;DHT22;62026;39.230;9.122;2023-08-30T00:15:25;23.70;51.60
67598;DHT22;62026;39.230;9.122;2023-08-30T00:17:51;23.70;51.50
67598;DHT22;62026;39.230;9.122;2023-08-30T00:20:21;23.60;51.60
67598;DHT22;62026;39.230;9.122;2023-08-30T00:22:47;23.60;51.70
67598;DHT22;62026;39.230;9.122;2023-08-30T00:25:14;23.50;51.60
67598;DHT22;62026;39.230;9.122;2023-08-30T00:27:41;23.40;51.70
67598;DHT22;62026;39.230;9.122;2023-08-30T00:30:08;23.30;51.70
67598;DHT22;62026;39.230;9.122;2023-08-30T00:32:35;23.30;51.70
67598;DHT22;62026;39.230;9.122;2023-08-30T00:35:01;23.30;51.50
67598;DHT22;62026;39.230;9.122;2023-08-30T00:37:28;23.30;51.50
67598;DHT22;62026;39.230;9.122;2023-08-30T00:39:54;23.30;51.40
67598;DHT22;62026;39.230;9.122;2023-08-30T00:42:20;23.20;51.30
67598;DHT22;62026;39.230;9.122;2023-08-30T00:44:46;23.20;51.40
67598;DHT22;62026;39.230;9.122;2023-08-30T00:47:12;23.20;51.40
67598;DHT22;62026;39.230;9.122;2023-08-30T00:49:38;23.20;51.50
67598;DHT22;62026;39.230;9.122;2023-08-30T00:52:09;23.20;51.50
67598;DHT22;62026;39.230;9.122;2023-08-30T00:54:36;23.20;51.50
67598;DHT22;62026;39.230;9.122;2023-08-30T00:57:04;23.20;51.50
67598;DHT22;62026;39.230;9.122;2023-08-30T00:59:33;23.10;51.50
67598;DHT22;62026;39.230;9.122;2023-08-30T01:02:00;23.10;51.70
67598;DHT22;62026;39.230;9.122;2023-08-30T01:04:29;23.10;51.70
67598;DHT22;62026;39.230;9.122;2023-08-30T01:06:55;23.10;51.70
67598;DHT22;62026;39.230;9.122;2023-08-30T01:09:22;23.00;51.80
67598;DHT22;62026;39.230;9.122;2023-08-30T01:12:20;23.00;51.90
67598;DHT22;62026;39.230;9.122;2023-08-30T01:15:05;23.00;51.90
67598;DHT22;62026;39.230;9.122;2023-08-30T01:17:38;23.00;51.90
67598;DHT22;62026;39.230;9.122;2023-08-30T01:20:07;22.90;52.10
67598;DHT22;62026;39.230;9.122;2023-08-30T01:23:05;22.90;52.10
67598;DHT22;62026;39.230;9.122;2023-08-30T01:26:13;23.00;52.00
67598;DHT22;62026;39.230;9.122;2023-08-30T01:28:46;22.90;52.20
67598;DHT22;62026;39.230;9.122;2023-08-30T01:31:15;22.90;52.10
67598;DHT22;62026;39.230;9.122;2023-08-30T01:33:42;22.90;52.20
67598;DHT22;62026;39.230;9.122;2023-08-30T01:36:09;22.90;52.20
67598;DHT22;62026;39.230;9.122;2023-08-30T01:38:35;22.90;52.20
67598;DHT22;62026;39.230;9.122;2023-08-30T01:41:04;22.80;52.20
67598;DHT22;62026;39.230;9.122;2023-08-30T01:43:31;22.80;52.30
67598;DHT22;62026;39.230;9.122;2023-08-30T01:45:58;22.80;52.30
67598;DHT22;62026;39.230;9.122;2023-08-30T01:48:26;22.80;52.40
67598;DHT22;62026;39.230;9.122;2023-08-30T01:50:54;22.80;52.40
67598;DHT22;62026;39.230;9.122;2023-08-30T01:53:24;22.80;52.40
67598;DHT22;62026;39.230;9.122;2023-08-30T01:55:52;22.70;52.30
67598;DHT22;62026;39.230;9.122;2023-08-30T01:58:18;22.70;52.50
67598;DHT22;62026;39.230;9.122;2023-08-30T02:00:45;22.60;52.50
67598;DHT22;62026;39.230;9.122;2023-08-30T02:03:12;22.60;52.60
67598;DHT22;62026;39.230;9.122;2023-08-30T02:06:11;22.60;52.50
67598;DHT22;62026;39.230;9.122;2023-08-30T02:08:55;22.60;52.60
67598;DHT22;62026;39.230;9.122;2023-08-30T02:11:32;22.60;52.70
67598;DHT22;62026;39.230;9.122;2023-08-30T02:14:01;22.60;52.70
67598;DHT22;62026;39.230;9.122;2023-08-30T02:16:33;22.60;52.60
67598;DHT22;62026;39.230;9.122;2023-08-30T02:19:00;22.60;52.80
67598;DHT22;62026;39.230;9.122;2023-08-30T02:21:27;22.60;52.90
67598;DHT22;62026;39.230;9.122;2023-08-30T02:23:53;22.60;53.00
67598;DHT22;62026;39.230;9.122;2023-08-30T02:26:20;22.60;53.00
67598;DHT22;62026;39.230;9.122;2023-08-30T02:28:46;22.60;53.10
67598;DHT22;62026;39.230;9.122;2023-08-30T02:31:12;22.60;53.00
67598;DHT22;62026;39.230;9.122;2023-08-30T02:33:38;22.60;53.20
67598;DHT22;62026;39.230;9.122;2023-08-30T02:36:05;22.60;53.20
67598;DHT22;62026;39.230;9.122;2023-08-30T02:38:31;22.60;53.30
67598;DHT22;62026;39.230;9.122;2023-08-30T02:40:57;22.60;53.30
67598;DHT22;62026;39.230;9.122;2023-08-30T02:43:23;22.60;53.40
67598;DHT22;62026;39.230;9.122;2023-08-30T02:45:50;22.50;53.70
67598;DHT22;62026;39.230;9.122;2023-08-30T02:48:17;22.50;53.70
67598;DHT22;62026;39.230;9.122;2023-08-30T02:50:43;22.50;53.90
67598;DHT22;62026;39.230;9.122;2023-08-30T02:53:09;22.60;54.00
67598;DHT22;62026;39.230;9.122;2023-08-30T02:55:35;22.60;54.10
67598;DHT22;62026;39.230;9.122;2023-08-30T02:58:02;22.60;54.10
67598;DHT22;62026;39.230;9.122;2023-08-30T03:00:28;22.60;54.20
67598;DHT22;62026;39.230;9.122;2023-08-30T03:02:56;22.60;54.30
67598;DHT22;62026;39.230;9.122;2023-08-30T03:05:22;22.70;54.50
67598;DHT22;62026;39.230;9.122;2023-08-30T03:07:49;22.70;54.30
67598;DHT22;62026;39.230;9.122;2023-08-30T03:10:17;22.70;54.30
67598;DHT22;62026;39.230;9.122;2023-08-30T03:12:43;22.70;54.30
67598;DHT22;62026;39.230;9.122;2023-08-30T03:15:09;22.80;54.30
67598;DHT22;62026;39.230;9.122;2023-08-30T03:17:35;22.80;54.60
67598;DHT22;62026;39.230;9.122;2023-08-30T03:20:03;22.70;54.80
67598;DHT22;62026;39.230;9.122;2023-08-30T03:22:30;22.70;54.70
67598;DHT22;62026;39.230;9.122;2023-08-30T03:24:57;22.70;54.70
67598;DHT22;62026;39.230;9.122;2023-08-30T03:27:23;22.80;54.80
67598;DHT22;62026;39.230;9.122;2023-08-30T03:29:49;22.70;54.90
67598;DHT22;62026;39.230;9.122;2023-08-30T03:32:17;22.70;54.80
67598;DHT22;62026;39.230;9.122;2023-08-30T03:34:47;22.80;55.10
67598;DHT22;62026;39.230;9.122;2023-08-30T03:37:14;22.70;55.00
67598;DHT22;62026;39.230;9.122;2023-08-30T03:39:41;22.80;54.90
67598;DHT22;62026;39.230;9.122;2023-08-30T03:42:07;22.80;54.80
67598;DHT22;62026;39.230;9.122;2023-08-30T03:44:34;22.80;54.80
67598;DHT22;62026;39.230;9.122;2023-08-30T03:47:00;22.80;55.10
67598;DHT22;62026;39.230;9.122;2023-08-30T03:49:26;22.70;55.10
67598;DHT22;62026;39.230;9.122;2023-08-30T03:51:52;22.70;55.30
67598;DHT22;62026;39.230;9.122;2023-08-30T03:54:18;22.70;55.30
67598;DHT22;62026;39.230;9.122;2023-08-30T03:56:45;22.70;55.20
67598;DHT22;62026;39.230;9.122;2023-08-30T03:59:12;22.70;55.10
67598;DHT22;62026;39.230;9.122;2023-08-30T04:01:38;22.80;55.10
67598;DHT22;62026;39.230;9.122;2023-08-30T04:04:04;22.70;55.10
67598;DHT22;62026;39.230;9.122;2023-08-30T04:06:31;22.70;55.10
67598;DHT22;62026;39.230;9.122;2023-08-30T04:08:57;22.70;55.10
67598;DHT22;62026;39.230;9.122;2023-08-30T04:11:23;22.70;55.00
67598;DHT22;62026;39.230;9.122;2023-08-30T04:13:49;22.70;55.10
67598;DHT22;62026;39.230;9.122;2023-08-30T04:16:15;22.70;55.10
67598;DHT22;62026;39.230;9.122;2023-08-30T04:18:41;22.70;55.10
67598;DHT22;62026;39.230;9.122;2023-08-30T04:21:07;22.70;55.00
67598;DHT22;62026;39.230;9.122;2023-08-30T04:23:34;22.70;54.90
67598;DHT22;62026;39.230;9.122;2023-08-30T04:26:01;22.80;54.90
67598;DHT22;62026;39.230;9.122;2023-08-30T04:28:27;22.80;54.70
67598;DHT22;62026;39.230;9.122;2023-08-30T04:30:54;22.80;54.70
67598;DHT22;62026;39.230;9.122;2023-08-30T04:33:21;22.80;54.80
67598;DHT22;62026;39.230;9.122;2023-08-30T04:35:54;22.80;54.80
67598;DHT22;62026;39.230;9.122;2023-08-30T04:38:21;22.80;54.80
67598;DHT22;62026;39.230;9.122;2023-08-30T04:40:47;22.80;55.00
67598;DHT22;62026;39.230;9.122;2023-08-30T04:43:14;22.80;54.90
67598;DHT22;62026;39.230;9.122;2023-08-30T04:45:41;22.90;54.80
67598;DHT22;62026;39.230;9.122;2023-08-30T04:48:08;22.90;54.80
67598;DHT22;62026;39.230;9.122;2023-08-30T04:50:34;22.80;54.90
67598;DHT22;62026;39.230;9.122;2023-08-30T04:53:00;22.80;55.10
67598;DHT22;62026;39.230;9.122;2023-08-30T04:55:30;22.80;55.00
67598;DHT22;62026;39.230;9.122;2023-08-30T04:57:58;22.80;55.00
67598;DHT22;62026;39.230;9.122;2023-08-30T05:00:28;22.90;55.10
67598;DHT22;62026;39.230;9.122;2023-08-30T05:02:54;22.80;55.40
67598;DHT22;62026;39.230;9.122;2023-08-30T05:05:20;22.80;55.50
67598;DHT22;62026;39.230;9.122;2023-08-30T05:07:46;22.80;55.50
67598;DHT22;62026;39.230;9.122;2023-08-30T05:10:13;22.80;55.60
67598;DHT22;62026;39.230;9.122;2023-08-30T05:12:39;22.70;55.90
67598;DHT22;62026;39.230;9.122;2023-08-30T05:15:05;22.70;55.90
67598;DHT22;62026;39.230;9.122;2023-08-30T05:17:31;22.80;56.00
67598;DHT22;62026;39.230;9.122;2023-08-30T05:19:59;22.70;56.20
67598;DHT22;62026;39.230;9.122;2023-08-30T05:22:25;22.80;55.80
67598;DHT22;62026;39.230;9.122;2023-08-30T05:24:51;22.90;56.00
67598;DHT22;62026;39.230;9.122;2023-08-30T05:27:17;22.90;56.20
67598;DHT22;62026;39.230;9.122;2023-08-30T05:29:44;22.80;56.30
67598;DHT22;62026;39.230;9.122;2023-08-30T05:32:10;22.80;56.00
67598;DHT22;62026;39.230;9.122;2023-08-30T05:34:46;22.70;55.50
67598;DHT22;62026;39.230;9.122;2023-08-30T05:37:24;22.60;55.40
67598;DHT22;62026;39.230;9.122;2023-08-30T05:40:23;22.60;55.10
67598;DHT22;62026;39.230;9.122;2023-08-30T05:42:50;22.50;55.20
67598;DHT22;62026;39.230;9.122;2023-08-30T05:45:16;22.40;55.30
67598;DHT22;62026;39.230;9.122;2023-08-30T05:47:42;22.40;55.50
67598;DHT22;62026;39.230;9.122;2023-08-30T05:50:08;22.40;55.60
67598;DHT22;62026;39.230;9.122;2023-08-30T05:52:35;22.50;55.80
67598;DHT22;62026;39.230;9.122;2023-08-30T05:55:01;22.50;55.80
67598;DHT22;62026;39.230;9.122;2023-08-30T05:57:28;22.40;55.90
67598;DHT22;62026;39.230;9.122;2023-08-30T05:59:59;22.40;55.90
67598;DHT22;62026;39.230;9.122;2023-08-30T06:02:26;22.50;56.00
67598;DHT22;62026;39.230;9.122;2023-08-30T06:04:52;22.50;56.00
67598;DHT22;62026;39.230;9.122;2023-08-30T06:07:18;22.70;55.70
67598;DHT22;62026;39.230;9.122;2023-08-30T06:09:44;22.80;55.60
67598;DHT22;62026;39.230;9.122;2023-08-30T06:12:10;22.90;55.50
67598;DHT22;62026;39.230;9.122;2023-08-30T06:14:36;23.10;55.30
67598;DHT22;62026;39.230;9.122;2023-08-30T06:17:02;23.20;55.20
67598;DHT22;62026;39.230;9.122;2023-08-30T06:19:28;23.20;55.20
67598;DHT22;62026;39.230;9.122;2023-08-30T06:21:54;23.30;54.90
67598;DHT22;62026;39.230;9.122;2023-08-30T06:24:21;23.40;55.00
67598;DHT22;62026;39.230;9.122;2023-08-30T06:26:47;23.50;54.90
67598;DHT22;62026;39.230;9.122;2023-08-30T06:29:13;23.60;54.50
67598;DHT22;62026;39.230;9.122;2023-08-30T06:31:39;23.70;54.10
67598;DHT22;62026;39.230;9.122;2023-08-30T06:34:07;23.90;54.20
67598;DHT22;62026;39.230;9.122;2023-08-30T06:36:33;24.00;54.20
67598;DHT22;62026;39.230;9.122;2023-08-30T06:38:59;24.20;53.90
67598;DHT22;62026;39.230;9.122;2023-08-30T06:41:25;24.30;53.60
67598;DHT22;62026;39.230;9.122;2023-08-30T06:43:51;24.50;53.50
67598;DHT22;62026;39.230;9.122;2023-08-30T06:46:16;24.60;53.20
67598;DHT22;62026;39.230;9.122;2023-08-30T06:48:42;24.90;53.00
67598;DHT22;62026;39.230;9.122;2023-08-30T06:51:08;25.10;52.40
67598;DHT22;62026;39.230;9.122;2023-08-30T06:53:36;25.20;52.40
67598;DHT22;62026;39.230;9.122;2023-08-30T06:56:02;25.30;52.30
67598;DHT22;62026;39.230;9.122;2023-08-30T06:58:29;25.50;51.90
67598;DHT22;62026;39.230;9.122;2023-08-30T07:00:57;25.60;51.70
67598;DHT22;62026;39.230;9.122;2023-08-30T07:03:23;25.70;51.60
67598;DHT22;62026;39.230;9.122;2023-08-30T07:05:51;25.80;51.30
67598;DHT22;62026;39.230;9.122;2023-08-30T07:08:17;25.90;51.20
67598;DHT22;62026;39.230;9.122;2023-08-30T07:10:43;26.10;51.00
67598;DHT22;62026;39.230;9.122;2023-08-30T07:13:09;26.30;50.40
67598;DHT22;62026;39.230;9.122;2023-08-30T07:15:41;26.50;49.90
67598;DHT22;62026;39.230;9.122;2023-08-30T07:18:08;26.70;49.50
67598;DHT22;62026;39.230;9.122;2023-08-30T07:20:35;26.80;49.00
67598;DHT22;62026;39.230;9.122;2023-08-30T07:23:02;26.90;48.70
67598;DHT22;62026;39.230;9.122;2023-08-30T07:25:32;27.10;48.10
67598;DHT22;62026;39.230;9.122;2023-08-30T07:28:03;27.30;47.80
67598;DHT22;62026;39.230;9.122;2023-08-30T07:30:29;27.40;47.40
67598;DHT22;62026;39.230;9.122;2023-08-30T07:32:56;27.60;47.10
67598;DHT22;62026;39.230;9.122;2023-08-30T07:35:22;27.60;46.70
67598;DHT22;62026;39.230;9.122;2023-08-30T07:37:48;27.50;46.70
67598;DHT22;62026;39.230;9.122;2023-08-30T07:40:14;27.40;47.00
67598;DHT22;62026;39.230;9.122;2023-08-30T07:42:40;27.50;46.70
67598;DHT22;62026;39.230;9.122;2023-08-30T07:45:06;27.60;46.60
67598;DHT22;62026;39.230;9.122;2023-08-30T07:47:33;27.60;46.30
67598;DHT22;62026;39.230;9.122;2023-08-30T07:49:59;27.80;46.10
67598;DHT22;62026;39.230;9.122;2023-08-30T07:52:25;28.00;45.60
67598;DHT22;62026;39.230;9.122;2023-08-30T07:54:51;28.00;45.50
67598;DHT22;62026;39.230;9.122;2023-08-30T07:57:17;28.00;45.50
67598;DHT22;62026;39.230;9.122;2023-08-30T07:59:42;28.00;45.40
67598;DHT22;62026;39.230;9.122;2023-08-30T08:02:08;28.10;45.20
67598;DHT22;62026;39.230;9.122;2023-08-30T08:04:35;28.20;45.00
67598;DHT22;62026;39.230;9.122;2023-08-30T08:07:02;27.90;45.50
67598;DHT22;62026;39.230;9.122;2023-08-30T08:09:29;28.10;45.10
67598;DHT22;62026;39.230;9.122;2023-08-30T08:11:55;27.90;45.40
67598;DHT22;62026;39.230;9.122;2023-08-30T08:14:23;27.90;45.30
67598;DHT22;62026;39.230;9.122;2023-08-30T08:16:49;28.00;45.20
67598;DHT22;62026;39.230;9.122;2023-08-30T08:19:15;28.00;45.10
67598;DHT22;62026;39.230;9.122;2023-08-30T08:21:42;28.30;44.80
67598;DHT22;62026;39.230;9.122;2023-08-30T08:24:07;28.50;44.40
67598;DHT22;62026;39.230;9.122;2023-08-30T08:26:34;28.50;44.30
67598;DHT22;62026;39.230;9.122;2023-08-30T08:28:59;28.60;44.20
67598;DHT22;62026;39.230;9.122;2023-08-30T08:31:25;28.70;43.70
67598;DHT22;62026;39.230;9.122;2023-08-30T08:34:08;28.80;43.40
67598;DHT22;62026;39.230;9.122;2023-08-30T08:36:37;28.80;43.00
67598;DHT22;62026;39.230;9.122;2023-08-30T08:39:04;28.80;43.00
67598;DHT22;62026;39.230;9.122;2023-08-30T08:41:44;28.90;43.10
67598;DHT22;62026;39.230;9.122;2023-08-30T08:44:11;28.90;43.40
67598;DHT22;62026;39.230;9.122;2023-08-30T08:46:39;28.90;43.20
67598;DHT22;62026;39.230;9.122;2023-08-30T08:49:12;29.10;42.80
67598;DHT22;62026;39.230;9.122;2023-08-30T08:51:40;29.10;42.20
67598;DHT22;62026;39.230;9.122;2023-08-30T08:54:08;29.30;42.00
67598;DHT22;62026;39.230;9.122;2023-08-30T08:56:35;29.30;41.50
67598;DHT22;62026;39.230;9.122;2023-08-30T08:59:03;29.30;40.90
67598;DHT22;62026;39.230;9.122;2023-08-30T09:01:31;29.10;39.60
67598;DHT22;62026;39.230;9.122;2023-08-30T09:04:07;29.20;38.70
67598;DHT22;62026;39.230;9.122;2023-08-30T09:06:35;29.30;37.50
67598;DHT22;62026;39.230;9.122;2023-08-30T09:09:03;29.20;36.60
67598;DHT22;62026;39.230;9.122;2023-08-30T09:11:29;29.30;36.40
67598;DHT22;62026;39.230;9.122;2023-08-30T09:13:56;29.50;36.50
67598;DHT22;62026;39.230;9.122;2023-08-30T09:16:22;29.50;36.60
67598;DHT22;62026;39.230;9.122;2023-08-30T09:19:01;29.40;36.80
67598;DHT22;62026;39.230;9.122;2023-08-30T09:21:28;29.60;36.70
67598;DHT22;62026;39.230;9.122;2023-08-30T09:24:03;29.80;36.10
67598;DHT22;62026;39.230;9.122;2023-08-30T09:26:31;29.60;37.10
67598;DHT22;62026;39.230;9.122;2023-08-30T09:29:06;29.70;37.40
67598;DHT22;62026;39.230;9.122;2023-08-30T09:31:33;29.50;37.00
67598;DHT22;62026;39.230;9.122;2023-08-30T09:34:03;29.70;36.60
67598;DHT22;62026;39.230;9.122;2023-08-30T09:36:48;29.60;35.90
67598;DHT22;62026;39.230;9.122;2023-08-30T09:39:15;29.50;36.40
67598;DHT22;62026;39.230;9.122;2023-08-30T09:41:45;29.60;36.30
67598;DHT22;62026;39.230;9.122;2023-08-30T09:44:20;30.00;36.20
67598;DHT22;62026;39.230;9.122;2023-08-30T09:46:50;29.90;36.30
67598;DHT22;62026;39.230;9.122;2023-08-30T09:49:21;29.90;36.70
67598;DHT22;62026;39.230;9.122;2023-08-30T09:51:51;30.10;36.70
67598;DHT22;62026;39.230;9.122;2023-08-30T09:54:20;30.00;36.50
67598;DHT22;62026;39.230;9.122;2023-08-30T09:56:47;29.90;36.70
67598;DHT22;62026;39.230;9.122;2023-08-30T09:59:14;29.80;36.60
67598;DHT22;62026;39.230;9.122;2023-08-30T10:01:44;29.70;36.50
67598;DHT22;62026;39.230;9.122;2023-08-30T10:04:15;30.00;36.50
67598;DHT22;62026;39.230;9.122;2023-08-30T10:06:41;30.00;36.40
67598;DHT22;62026;39.230;9.122;2023-08-30T10:09:08;30.00;36.10
67598;DHT22;62026;39.230;9.122;2023-08-30T10:11:38;30.10;36.40
67598;DHT22;62026;39.230;9.122;2023-08-30T10:14:06;30.00;36.90
67598;DHT22;62026;39.230;9.122;2023-08-30T10:16:41;30.10;36.90
67598;DHT22;62026;39.230;9.122;2023-08-30T10:19:17;29.90;37.10
67598;DHT22;62026;39.230;9.122;2023-08-30T10:22:10;29.80;37.00
67598;DHT22;62026;39.230;9.122;2023-08-30T10:24:46;30.00;37.00
67598;DHT22;62026;39.230;9.122;2023-08-30T10:27:17;30.10;36.80
67598;DHT22;62026;39.230;9.122;2023-08-30T10:29:45;29.90;36.70
67598;DHT22;62026;39.230;9.122;2023-08-30T10:32:19;29.80;37.30
67598;DHT22;62026;39.230;9.122;2023-08-30T10:34:49;29.80;37.40
67598;DHT22;62026;39.230;9.122;2023-08-30T10:37:16;29.70;37.30
67598;DHT22;62026;39.230;9.122;2023-08-30T10:39:48;29.50;37.90
67598;DHT22;62026;39.230;9.122;2023-08-30T10:42:16;29.30;37.90
67598;DHT22;62026;39.230;9.122;2023-08-30T10:47:28;29.10;38.30
67598;DHT22;62026;39.230;9.122;2023-08-30T10:49:57;29.10;38.50
67598;DHT22;62026;39.230;9.122;2023-08-30T10:52:30;29.20;38.40
67598;DHT22;62026;39.230;9.122;2023-08-30T10:55:14;29.00;38.30
67598;DHT22;62026;39.230;9.122;2023-08-30T10:57:45;29.00;38.70
67598;DHT22;62026;39.230;9.122;2023-08-30T11:00:21;29.00;38.60
67598;DHT22;62026;39.230;9.122;2023-08-30T11:02:51;29.10;38.70
67598;DHT22;62026;39.230;9.122;2023-08-30T11:05:21;29.20;38.60
67598;DHT22;62026;39.230;9.122;2023-08-30T11:07:49;29.10;38.60
67598;DHT22;62026;39.230;9.122;2023-08-30T11:10:17;29.30;38.60
67598;DHT22;62026;39.230;9.122;2023-08-30T11:12:45;29.40;38.30
67598;DHT22;62026;39.230;9.122;2023-08-30T11:15:13;29.30;37.70
67598;DHT22;62026;39.230;9.122;2023-08-30T11:17:41;29.10;38.50
67598;DHT22;62026;39.230;9.122;2023-08-30T11:20:15;29.10;38.40
67598;DHT22;62026;39.230;9.122;2023-08-30T11:22:46;29.00;38.50
67598;DHT22;62026;39.230;9.122;2023-08-30T11:25:14;29.00;38.40
67598;DHT22;62026;39.230;9.122;2023-08-30T11:27:42;28.90;38.70
67598;DHT22;62026;39.230;9.122;2023-08-30T11:30:09;28.90;38.60
67598;DHT22;62026;39.230;9.122;2023-08-30T11:32:37;28.90;38.80
67598;DHT22;62026;39.230;9.122;2023-08-30T11:35:05;28.90;38.90
67598;DHT22;62026;39.230;9.122;2023-08-30T11:37:32;29.00;38.70
67598;DHT22;62026;39.230;9.122;2023-08-30T11:39:59;29.10;38.60
67598;DHT22;62026;39.230;9.122;2023-08-30T11:42:26;28.90;38.70
67598;DHT22;62026;39.230;9.122;2023-08-30T11:44:53;28.90;38.50
67598;DHT22;62026;39.230;9.122;2023-08-30T11:47:22;28.90;38.60
67598;DHT22;62026;39.230;9.122;2023-08-30T11:49:50;28.80;38.60
67598;DHT22;62026;39.230;9.122;2023-08-30T11:52:19;28.90;38.70
67598;DHT22;62026;39.230;9.122;2023-08-30T11:54:49;28.80;38.80
67598;DHT22;62026;39.230;9.122;2023-08-30T11:57:16;28.90;38.80
67598;DHT22;62026;39.230;9.122;2023-08-30T11:59:42;29.00;38.80
67598;DHT22;62026;39.230;9.122;2023-08-30T12:02:09;28.90;38.90
67598;DHT22;62026;39.230;9.122;2023-08-30T12:04:42;28.80;39.00
67598;DHT22;62026;39.230;9.122;2023-08-30T12:07:09;28.80;38.90
67598;DHT22;62026;39.230;9.122;2023-08-30T12:09:36;28.70;38.90
67598;DHT22;62026;39.230;9.122;2023-08-30T12:12:23;28.60;38.90
67598;DHT22;62026;39.230;9.122;2023-08-30T12:14:56;28.60;38.80
67598;DHT22;62026;39.230;9.122;2023-08-30T12:17:22;28.60;38.90
67598;DHT22;62026;39.230;9.122;2023-08-30T12:19:58;28.60;39.00
67598;DHT22;62026;39.230;9.122;2023-08-30T12:22:38;28.70;38.90
67598;DHT22;62026;39.230;9.122;2023-08-30T12:25:16;28.60;38.70
67598;DHT22;62026;39.230;9.122;2023-08-30T12:27:46;28.60;38.70
67598;DHT22;62026;39.230;9.122;2023-08-30T12:30:16;28.50;38.80
67598;DHT22;62026;39.230;9.122;2023-08-30T12:32:43;28.50;38.80
67598;DHT22;62026;39.230;9.122;2023-08-30T12:35:10;28.50;38.80
67598;DHT22;62026;39.230;9.122;2023-08-30T12:37:36;28.40;38.70
67598;DHT22;62026;39.230;9.122;2023-08-30T12:40:02;28.40;38.70
67598;DHT22;62026;39.230;9.122;2023-08-30T12:42:29;28.40;39.00
67598;DHT22;62026;39.230;9.122;2023-08-30T12:44:55;28.40;39.10
67598;DHT22;62026;39.230;9.122;2023-08-30T12:47:21;28.40;39.00
67598;DHT22;62026;39.230;9.122;2023-08-30T12:49:47;28.40;39.00
67598;DHT22;62026;39.230;9.122;2023-08-30T12:52:13;28.40;38.90
67598;DHT22;62026;39.230;9.122;2023-08-30T12:54:39;28.50;38.80
67598;DHT22;62026;39.230;9.122;2023-08-30T12:57:04;28.50;38.70
67598;DHT22;62026;39.230;9.122;2023-08-30T12:59:31;28.40;38.70
67598;DHT22;62026;39.230;9.122;2023-08-30T13:01:57;28.50;38.90
67598;DHT22;62026;39.230;9.122;2023-08-30T13:04:23;28.60;38.70
67598;DHT22;62026;39.230;9.122;2023-08-30T13:06:49;28.50;38.40
67598;DHT22;62026;39.230;9.122;2023-08-30T13:09:16;28.50;38.70
67598;DHT22;62026;39.230;9.122;2023-08-30T13:11:42;28.50;38.80
67598;DHT22;62026;39.230;9.122;2023-08-30T13:14:08;28.50;38.80
67598;DHT22;62026;39.230;9.122;2023-08-30T13:16:34;28.50;38.80
67598;DHT22;62026;39.230;9.122;2023-08-30T13:19:01;28.50;39.00
67598;DHT22;62026;39.230;9.122;2023-08-30T13:21:27;28.50;39.00
67598;DHT22;62026;39.230;9.122;2023-08-30T13:23:53;28.50;39.10
67598;DHT22;62026;39.230;9.122;2023-08-30T13:26:19;28.50;39.00
67598;DHT22;62026;39.230;9.122;2023-08-30T13:28:45;28.50;39.00
67598;DHT22;62026;39.230;9.122;2023-08-30T13:31:10;28.50;38.90
67598;DHT22;62026;39.230;9.122;2023-08-30T13:33:36;28.50;38.70
67598;DHT22;62026;39.230;9.122;2023-08-30T13:36:02;28.50;38.60
67598;DHT22;62026;39.230;9.122;2023-08-30T13:38:29;28.50;38.60
67598;DHT22;62026;39.230;9.122;2023-08-30T13:40:58;28.40;38.70
67598;DHT22;62026;39.230;9.122;2023-08-30T13:43:29;28.50;38.90
67598;DHT22;62026;39.230;9.122;2023-08-30T13:45:58;28.50;39.00
67598;DHT22;62026;39.230;9.122;2023-08-30T13:48:24;28.50;38.80
67598;DHT22;62026;39.230;9.122;2023-08-30T13:50:51;28.50;38.80
67598;DHT22;62026;39.230;9.122;2023-08-30T13:53:17;28.50;39.00
67598;DHT22;62026;39.230;9.122;2023-08-30T13:55:47;28.50;39.10
67598;DHT22;62026;39.230;9.122;2023-08-30T13:58:14;28.40;39.20
67598;DHT22;62026;39.230;9.122;2023-08-30T14:00:40;28.40;39.30
67598;DHT22;62026;39.230;9.122;2023-08-30T14:03:06;28.50;39.10
67598;DHT22;62026;39.230;9.122;2023-08-30T14:05:34;28.40;39.20
67598;DHT22;62026;39.230;9.122;2023-08-30T14:08:00;28.40;39.30
67598;DHT22;62026;39.230;9.122;2023-08-30T14:10:26;28.40;39.30
67598;DHT22;62026;39.230;9.122;2023-08-30T14:12:51;28.40;39.10
67598;DHT22;62026;39.230;9.122;2023-08-30T14:15:18;28.40;39.30
67598;DHT22;62026;39.230;9.122;2023-08-30T14:17:43;28.40;39.20
67598;DHT22;62026;39.230;9.122;2023-08-30T14:20:10;28.40;39.20
67598;DHT22;62026;39.230;9.122;2023-08-30T14:22:36;28.40;39.30
67598;DHT22;62026;39.230;9.122;2023-08-30T14:25:03;28.40;39.10
67598;DHT22;62026;39.230;9.122;2023-08-30T14:27:30;28.30;39.40
67598;DHT22;62026;39.230;9.122;2023-08-30T14:29:56;28.20;39.50
67598;DHT22;62026;39.230;9.122;2023-08-30T14:32:22;28.20;39.50
67598;DHT22;62026;39.230;9.122;2023-08-30T14:34:48;28.20;39.70
67598;DHT22;62026;39.230;9.122;2023-08-30T14:37:14;28.20;39.80
67598;DHT22;62026;39.230;9.122;2023-08-30T14:39:40;28.30;39.70
67598;DHT22;62026;39.230;9.122;2023-08-30T14:42:06;28.20;39.70
67598;DHT22;62026;39.230;9.122;2023-08-30T14:44:32;28.20;39.80
67598;DHT22;62026;39.230;9.122;2023-08-30T14:46:58;28.10;39.80
67598;DHT22;62026;39.230;9.122;2023-08-30T14:49:24;28.20;39.90
67598;DHT22;62026;39.230;9.122;2023-08-30T14:51:50;28.10;40.10
67598;DHT22;62026;39.230;9.122;2023-08-30T14:54:16;28.10;40.00
67598;DHT22;62026;39.230;9.122;2023-08-30T14:56:42;28.10;40.20
67598;DHT22;62026;39.230;9.122;2023-08-30T14:59:09;28.10;40.20
67598;DHT22;62026;39.230;9.122;2023-08-30T15:01:35;28.00;40.60
67598;DHT22;62026;39.230;9.122;2023-08-30T15:04:01;28.00;40.40
67598;DHT22;62026;39.230;9.122;2023-08-30T15:06:27;28.00;40.30
67598;DHT22;62026;39.230;9.122;2023-08-30T15:08:53;28.00;40.10
67598;DHT22;62026;39.230;9.122;2023-08-30T15:11:19;27.90;40.20
67598;DHT22;62026;39.230;9.122;2023-08-30T15:13:45;28.00;40.20
67598;DHT22;62026;39.230;9.122;2023-08-30T15:16:11;28.00;40.30
67598;DHT22;62026;39.230;9.122;2023-08-30T15:18:37;28.00;39.90
67598;DHT22;62026;39.230;9.122;2023-08-30T15:21:03;28.00;39.90
67598;DHT22;62026;39.230;9.122;2023-08-30T15:23:29;27.90;39.90
67598;DHT22;62026;39.230;9.122;2023-08-30T15:25:54;27.90;40.00
67598;DHT22;62026;39.230;9.122;2023-08-30T15:28:20;27.80;39.90
67598;DHT22;62026;39.230;9.122;2023-08-30T15:30:47;27.80;40.10
67598;DHT22;62026;39.230;9.122;2023-08-30T15:33:16;27.80;40.10
67598;DHT22;62026;39.230;9.122;2023-08-30T15:35:43;27.80;40.20
67598;DHT22;62026;39.230;9.122;2023-08-30T15:38:10;27.80;40.70